sensor_id;sensor_type;location;lat;lon;timestamp;P1;durP1;ratioP1;P2;durP2;ratioP2
62673;SDS011;62269;47.594;17.638;2022-09-27T00:00:17;12.27;;;10.10;;
62673;SDS011;62269;47.594;17.638;2022-09-27T00:01:05;10.50;;;9.40;;
62673;SDS011;62269;47.594;17.638;2022-09-27T00:01:53;15.85;;;10.30;;
62673;SDS011;62269;47.594;17.638;2022-09-27T00:02:40;12.52;;;11.20;;
62673;SDS011;62269;47.594;17.638;2022-09-27T00:03:27;15.20;;;11.12;;
62673;SDS011;62269;47.594;17.638;2022-09-27T00:04:15;11.85;;;10.65;;
62673;SDS011;62269;47.594;17.638;2022-09-27T00:05:01;16.17;;;11.30;;
62673;SDS011;62269;47.594;17.638;2022-09-27T00:05:48;12.52;;;9.57;;
62673;SDS011;62269;47.594;17.638;2022-09-27T00:06:35;13.15;;;10.15;;
62673;SDS011;62269;47.594;17.638;2022-09-27T00:07:26;12.85;;;10.50;;
62673;SDS011;62269;47.594;17.638;2022-09-27T00:08:13;12.40;;;10.75;;
62673;SDS011;62269;47.594;17.638;2022-09-27T00:08:59;11.52;;;10.43;;
62673;SDS011;62269;47.594;17.638;2022-09-27T00:09:46;11.93;;;10.45;;
62673;SDS011;62269;47.594;17.638;2022-09-27T00:10:33;10.82;;;9.73;;
62673;SDS011;62269;47.594;17.638;2022-09-27T00:11:27;14.63;;;10.82;;
62673;SDS011;62269;47.594;17.638;2022-09-27T00:12:20;13.77;;;10.93;;
62673;SDS011;62269;47.594;17.638;2022-09-27T00:13:07;12.37;;;9.85;;
62673;SDS011;62269;47.594;17.638;2022-09-27T00:13:54;14.73;;;10.13;;
62673;SDS011;62269;47.594;17.638;2022-09-27T00:14:42;11.68;;;10.48;;
62673;SDS011;62269;47.594;17.638;2022-09-27T00:15:28;12.63;;;10.00;;
62673;SDS011;62269;47.594;17.638;2022-09-27T00:16:15;11.55;;;10.35;;
62673;SDS011;62269;47.594;17.638;2022-09-27T00:17:01;10.70;;;9.60;;
62673;SDS011;62269;47.594;17.638;2022-09-27T00:17:48;11.20;;;9.80;;
62673;SDS011;62269;47.594;17.638;2022-09-27T00:18:38;17.70;;;10.40;;
62673;SDS011;62269;47.594;17.638;2022-09-27T00:19:25;11.38;;;10.02;;
62673;SDS011;62269;47.594;17.638;2022-09-27T00:20:12;11.95;;;9.65;;
62673;SDS011;62269;47.594;17.638;2022-09-27T00:21:08;13.13;;;10.15;;
62673;SDS011;62269;47.594;17.638;2022-09-27T00:21:56;11.43;;;9.52;;
62673;SDS011;62269;47.594;17.638;2022-09-27T00:22:43;11.23;;;9.70;;
62673;SDS011;62269;47.594;17.638;2022-09-27T00:23:30;11.38;;;9.68;;
62673;SDS011;62269;47.594;17.638;2022-09-27T00:24:17;11.35;;;10.18;;
62673;SDS011;62269;47.594;17.638;2022-09-27T00:25:05;14.30;;;9.65;;
62673;SDS011;62269;47.594;17.638;2022-09-27T00:25:53;12.50;;;10.15;;
62673;SDS011;62269;47.594;17.638;2022-09-27T00:26:44;16.45;;;10.30;;
62673;SDS011;62269;47.594;17.638;2022-09-27T00:27:32;11.35;;;9.77;;
62673;SDS011;62269;47.594;17.638;2022-09-27T00:28:18;13.10;;;10.13;;
62673;SDS011;62269;47.594;17.638;2022-09-27T00:29:05;11.23;;;10.05;;
62673;SDS011;62269;47.594;17.638;2022-09-27T00:29:52;11.82;;;9.57;;
62673;SDS011;62269;47.594;17.638;2022-09-27T00:30:40;11.70;;;10.10;;
62673;SDS011;62269;47.594;17.638;2022-09-27T00:31:28;14.18;;;10.10;;
62673;SDS011;62269;47.594;17.638;2022-09-27T00:32:15;14.52;;;10.40;;
62673;SDS011;62269;47.594;17.638;2022-09-27T00:33:02;13.40;;;10.25;;
62673;SDS011;62269;47.594;17.638;2022-09-27T00:33:51;11.63;;;10.43;;
62673;SDS011;62269;47.594;17.638;2022-09-27T00:34:38;13.47;;;10.10;;
62673;SDS011;62269;47.594;17.638;2022-09-27T00:35:26;12.30;;;10.50;;
62673;SDS011;62269;47.594;17.638;2022-09-27T00:36:12;13.32;;;9.95;;
62673;SDS011;62269;47.594;17.638;2022-09-27T00:36:59;12.05;;;10.25;;
62673;SDS011;62269;47.594;17.638;2022-09-27T00:37:48;12.23;;;10.25;;
62673;SDS011;62269;47.594;17.638;2022-09-27T00:38:35;10.18;;;9.13;;
62673;SDS011;62269;47.594;17.638;2022-09-27T00:39:21;14.30;;;10.02;;
62673;SDS011;62269;47.594;17.638;2022-09-27T00:40:08;12.00;;;10.77;;
62673;SDS011;62269;47.594;17.638;2022-09-27T00:40:55;13.73;;;10.82;;
62673;SDS011;62269;47.594;17.638;2022-09-27T00:41:42;11.80;;;9.70;;
62673;SDS011;62269;47.594;17.638;2022-09-27T00:42:29;20.10;;;11.25;;
62673;SDS011;62269;47.594;17.638;2022-09-27T00:43:19;13.02;;;10.18;;
62673;SDS011;62269;47.594;17.638;2022-09-27T00:46:05;12.98;;;10.35;;
62673;SDS011;62269;47.594;17.638;2022-09-27T00:48:41;13.52;;;11.00;;
62673;SDS011;62269;47.594;17.638;2022-09-27T00:49:34;14.15;;;10.57;;
62673;SDS011;62269;47.594;17.638;2022-09-27T00:50:24;12.37;;;10.82;;
62673;SDS011;62269;47.594;17.638;2022-09-27T00:51:17;12.13;;;10.90;;
62673;SDS011;62269;47.594;17.638;2022-09-27T00:52:06;12.85;;;10.88;;
62673;SDS011;62269;47.594;17.638;2022-09-27T00:54:01;12.43;;;10.10;;
62673;SDS011;62269;47.594;17.638;2022-09-27T00:54:49;12.95;;;10.70;;
62673;SDS011;62269;47.594;17.638;2022-09-27T00:55:40;11.52;;;10.25;;
62673;SDS011;62269;47.594;17.638;2022-09-27T00:56:29;12.10;;;10.90;;
62673;SDS011;62269;47.594;17.638;2022-09-27T00:57:17;14.70;;;10.27;;
62673;SDS011;62269;47.594;17.638;2022-09-27T00:58:04;13.80;;;10.52;;
62673;SDS011;62269;47.594;17.638;2022-09-27T00:58:54;20.20;;;10.25;;
62673;SDS011;62269;47.594;17.638;2022-09-27T00:59:44;13.30;;;10.98;;
62673;SDS011;62269;47.594;17.638;2022-09-27T01:00:33;13.15;;;10.70;;
62673;SDS011;62269;47.594;17.638;2022-09-27T01:01:23;11.60;;;10.40;;
62673;SDS011;62269;47.594;17.638;2022-09-27T01:02:09;13.45;;;11.77;;
62673;SDS011;62269;47.594;17.638;2022-09-27T01:02:57;12.45;;;11.02;;
62673;SDS011;62269;47.594;17.638;2022-09-27T01:03:51;11.75;;;10.55;;
62673;SDS011;62269;47.594;17.638;2022-09-27T01:04:42;11.40;;;10.20;;
62673;SDS011;62269;47.594;17.638;2022-09-27T01:05:30;14.55;;;10.77;;
62673;SDS011;62269;47.594;17.638;2022-09-27T01:06:17;11.07;;;9.98;;
62673;SDS011;62269;47.594;17.638;2022-09-27T01:07:05;12.65;;;10.77;;
62673;SDS011;62269;47.594;17.638;2022-09-27T01:07:52;13.10;;;10.00;;
62673;SDS011;62269;47.594;17.638;2022-09-27T01:08:41;13.70;;;10.43;;
62673;SDS011;62269;47.594;17.638;2022-09-27T01:09:28;11.20;;;9.98;;
62673;SDS011;62269;47.594;17.638;2022-09-27T01:10:15;11.52;;;10.25;;
62673;SDS011;62269;47.594;17.638;2022-09-27T01:11:08;11.65;;;10.43;;
62673;SDS011;62269;47.594;17.638;2022-09-27T01:12:01;11.60;;;9.65;;
62673;SDS011;62269;47.594;17.638;2022-09-27T01:12:55;11.23;;;10.00;;
62673;SDS011;62269;47.594;17.638;2022-09-27T01:15:56;11.63;;;10.00;;
62673;SDS011;62269;47.594;17.638;2022-09-27T01:16:59;10.35;;;9.27;;
62673;SDS011;62269;47.594;17.638;2022-09-27T01:19:21;12.95;;;10.25;;
62673;SDS011;62269;47.594;17.638;2022-09-27T01:23:18;11.38;;;10.07;;
62673;SDS011;62269;47.594;17.638;2022-09-27T01:24:24;10.98;;;9.88;;
62673;SDS011;62269;47.594;17.638;2022-09-27T01:33:24;11.70;;;10.10;;
62673;SDS011;62269;47.594;17.638;2022-09-27T01:36:15;10.80;;;9.70;;
62673;SDS011;62269;47.594;17.638;2022-09-27T01:38:17;14.07;;;10.80;;
62673;SDS011;62269;47.594;17.638;2022-09-27T01:39:45;14.38;;;10.73;;
62673;SDS011;62269;47.594;17.638;2022-09-27T01:40:43;12.82;;;10.02;;
62673;SDS011;62269;47.594;17.638;2022-09-27T01:42:45;11.45;;;8.50;;
62673;SDS011;62269;47.594;17.638;2022-09-27T01:43:38;13.50;;;10.40;;
62673;SDS011;62269;47.594;17.638;2022-09-27T01:44:34;11.63;;;9.85;;
62673;SDS011;62269;47.594;17.638;2022-09-27T01:45:25;12.70;;;10.60;;
62673;SDS011;62269;47.594;17.638;2022-09-27T01:46:38;13.23;;;10.05;;
62673;SDS011;62269;47.594;17.638;2022-09-27T01:48:37;12.37;;;10.32;;
62673;SDS011;62269;47.594;17.638;2022-09-27T01:49:33;15.93;;;11.23;;
62673;SDS011;62269;47.594;17.638;2022-09-27T01:50:44;14.73;;;10.65;;
62673;SDS011;62269;47.594;17.638;2022-09-27T01:51:37;11.93;;;10.73;;
62673;SDS011;62269;47.594;17.638;2022-09-27T01:52:34;11.85;;;10.45;;
62673;SDS011;62269;47.594;17.638;2022-09-27T01:53:33;14.27;;;10.55;;
62673;SDS011;62269;47.594;17.638;2022-09-27T01:54:36;15.20;;;11.07;;
62673;SDS011;62269;47.594;17.638;2022-09-27T01:55:27;14.57;;;10.38;;
62673;SDS011;62269;47.594;17.638;2022-09-27T01:56:21;14.35;;;10.90;;
62673;SDS011;62269;47.594;17.638;2022-09-27T01:57:12;12.37;;;11.07;;
62673;SDS011;62269;47.594;17.638;2022-09-27T01:58:09;15.25;;;11.20;;
62673;SDS011;62269;47.594;17.638;2022-09-27T01:59:04;14.35;;;11.85;;
62673;SDS011;62269;47.594;17.638;2022-09-27T02:00:01;20.20;;;12.63;;
62673;SDS011;62269;47.594;17.638;2022-09-27T02:00:51;16.67;;;12.15;;
62673;SDS011;62269;47.594;17.638;2022-09-27T02:01:39;17.50;;;12.55;;
62673;SDS011;62269;47.594;17.638;2022-09-27T02:02:27;17.48;;;11.38;;
62673;SDS011;62269;47.594;17.638;2022-09-27T02:03:19;18.23;;;12.27;;
62673;SDS011;62269;47.594;17.638;2022-09-27T02:04:07;13.45;;;11.18;;
62673;SDS011;62269;47.594;17.638;2022-09-27T02:04:57;15.68;;;12.57;;
62673;SDS011;62269;47.594;17.638;2022-09-27T02:05:48;16.23;;;12.25;;
62673;SDS011;62269;47.594;17.638;2022-09-27T02:06:42;15.63;;;11.15;;
62673;SDS011;62269;47.594;17.638;2022-09-27T02:07:31;15.88;;;11.43;;
62673;SDS011;62269;47.594;17.638;2022-09-27T02:09:22;12.63;;;11.00;;
62673;SDS011;62269;47.594;17.638;2022-09-27T02:10:38;15.32;;;11.65;;
62673;SDS011;62269;47.594;17.638;2022-09-27T02:11:26;14.90;;;11.25;;
62673;SDS011;62269;47.594;17.638;2022-09-27T02:12:14;12.27;;;11.05;;
62673;SDS011;62269;47.594;17.638;2022-09-27T02:13:15;13.10;;;11.70;;
62673;SDS011;62269;47.594;17.638;2022-09-27T02:14:16;12.23;;;11.00;;
62673;SDS011;62269;47.594;17.638;2022-09-27T02:15:06;15.25;;;11.98;;
62673;SDS011;62269;47.594;17.638;2022-09-27T02:16:05;13.95;;;11.45;;
62673;SDS011;62269;47.594;17.638;2022-09-27T02:17:10;13.57;;;12.15;;
62673;SDS011;62269;47.594;17.638;2022-09-27T02:18:09;14.20;;;11.65;;
62673;SDS011;62269;47.594;17.638;2022-09-27T02:19:14;13.85;;;11.68;;
62673;SDS011;62269;47.594;17.638;2022-09-27T02:20:23;14.82;;;11.30;;
62673;SDS011;62269;47.594;17.638;2022-09-27T02:21:15;12.48;;;10.70;;
62673;SDS011;62269;47.594;17.638;2022-09-27T02:22:11;14.43;;;10.60;;
62673;SDS011;62269;47.594;17.638;2022-09-27T02:23:12;18.10;;;11.90;;
62673;SDS011;62269;47.594;17.638;2022-09-27T02:24:22;17.62;;;11.75;;
62673;SDS011;62269;47.594;17.638;2022-09-27T02:25:29;15.80;;;11.48;;
62673;SDS011;62269;47.594;17.638;2022-09-27T02:27:26;13.48;;;11.50;;
62673;SDS011;62269;47.594;17.638;2022-09-27T02:29:23;17.45;;;11.38;;
62673;SDS011;62269;47.594;17.638;2022-09-27T02:30:17;16.50;;;11.50;;
62673;SDS011;62269;47.594;17.638;2022-09-27T02:31:04;13.75;;;12.05;;
62673;SDS011;62269;47.594;17.638;2022-09-27T02:31:51;18.42;;;12.05;;
62673;SDS011;62269;47.594;17.638;2022-09-27T02:32:38;16.67;;;13.25;;
62673;SDS011;62269;47.594;17.638;2022-09-27T02:33:27;16.33;;;12.93;;
62673;SDS011;62269;47.594;17.638;2022-09-27T02:35:21;14.75;;;11.80;;
62673;SDS011;62269;47.594;17.638;2022-09-27T02:36:11;17.92;;;12.85;;
62673;SDS011;62269;47.594;17.638;2022-09-27T02:36:58;16.35;;;11.82;;
62673;SDS011;62269;47.594;17.638;2022-09-27T02:37:45;16.02;;;11.82;;
62673;SDS011;62269;47.594;17.638;2022-09-27T02:38:32;17.30;;;12.23;;
62673;SDS011;62269;47.594;17.638;2022-09-27T02:39:19;15.63;;;11.90;;
62673;SDS011;62269;47.594;17.638;2022-09-27T02:40:06;17.30;;;12.07;;
62673;SDS011;62269;47.594;17.638;2022-09-27T02:40:53;15.63;;;11.85;;
62673;SDS011;62269;47.594;17.638;2022-09-27T02:41:40;15.20;;;12.10;;
62673;SDS011;62269;47.594;17.638;2022-09-27T02:42:27;13.93;;;11.68;;
62673;SDS011;62269;47.594;17.638;2022-09-27T02:43:14;14.07;;;12.35;;
62673;SDS011;62269;47.594;17.638;2022-09-27T02:44:04;13.57;;;11.60;;
62673;SDS011;62269;47.594;17.638;2022-09-27T02:44:54;13.45;;;11.43;;
62673;SDS011;62269;47.594;17.638;2022-09-27T02:46:50;15.38;;;11.82;;
62673;SDS011;62269;47.594;17.638;2022-09-27T02:48:03;14.82;;;11.23;;
62673;SDS011;62269;47.594;17.638;2022-09-27T02:50:02;15.07;;;12.10;;
62673;SDS011;62269;47.594;17.638;2022-09-27T02:50:56;19.92;;;12.75;;
62673;SDS011;62269;47.594;17.638;2022-09-27T02:55:08;18.10;;;12.13;;
62673;SDS011;62269;47.594;17.638;2022-09-27T02:56:36;12.77;;;11.40;;
62673;SDS011;62269;47.594;17.638;2022-09-27T02:59:21;17.17;;;12.95;;
62673;SDS011;62269;47.594;17.638;2022-09-27T03:00:32;17.17;;;12.35;;
62673;SDS011;62269;47.594;17.638;2022-09-27T03:01:28;16.58;;;11.93;;
62673;SDS011;62269;47.594;17.638;2022-09-27T03:03:32;16.05;;;12.00;;
62673;SDS011;62269;47.594;17.638;2022-09-27T03:04:25;15.95;;;12.60;;
62673;SDS011;62269;47.594;17.638;2022-09-27T03:05:16;17.83;;;12.43;;
62673;SDS011;62269;47.594;17.638;2022-09-27T03:06:09;17.48;;;12.43;;
62673;SDS011;62269;47.594;17.638;2022-09-27T03:06:57;17.75;;;13.02;;
62673;SDS011;62269;47.594;17.638;2022-09-27T03:07:44;21.40;;;12.35;;
62673;SDS011;62269;47.594;17.638;2022-09-27T03:08:31;18.25;;;12.37;;
62673;SDS011;62269;47.594;17.638;2022-09-27T03:09:22;19.42;;;12.40;;
62673;SDS011;62269;47.594;17.638;2022-09-27T03:10:24;16.12;;;12.93;;
62673;SDS011;62269;47.594;17.638;2022-09-27T03:11:12;17.25;;;12.27;;
62673;SDS011;62269;47.594;17.638;2022-09-27T03:11:59;18.00;;;12.48;;
62673;SDS011;62269;47.594;17.638;2022-09-27T03:12:45;15.80;;;12.98;;
62673;SDS011;62269;47.594;17.638;2022-09-27T03:13:32;15.15;;;12.05;;
62673;SDS011;62269;47.594;17.638;2022-09-27T03:14:41;14.32;;;12.15;;
62673;SDS011;62269;47.594;17.638;2022-09-27T03:15:28;15.30;;;12.25;;
62673;SDS011;62269;47.594;17.638;2022-09-27T03:16:15;14.35;;;11.70;;
62673;SDS011;62269;47.594;17.638;2022-09-27T03:17:02;14.73;;;11.75;;
62673;SDS011;62269;47.594;17.638;2022-09-27T03:17:49;14.35;;;11.85;;
62673;SDS011;62269;47.594;17.638;2022-09-27T03:18:36;18.55;;;12.35;;
62673;SDS011;62269;47.594;17.638;2022-09-27T03:19:22;17.35;;;12.90;;
62673;SDS011;62269;47.594;17.638;2022-09-27T03:20:10;14.73;;;11.70;;
62673;SDS011;62269;47.594;17.638;2022-09-27T03:20:56;14.27;;;12.35;;
62673;SDS011;62269;47.594;17.638;2022-09-27T03:21:43;15.73;;;12.02;;
62673;SDS011;62269;47.594;17.638;2022-09-27T03:22:30;15.60;;;12.20;;
62673;SDS011;62269;47.594;17.638;2022-09-27T03:23:17;13.75;;;12.15;;
62673;SDS011;62269;47.594;17.638;2022-09-27T03:24:03;15.27;;;12.32;;
62673;SDS011;62269;47.594;17.638;2022-09-27T03:24:50;16.75;;;12.77;;
62673;SDS011;62269;47.594;17.638;2022-09-27T03:25:38;17.83;;;12.35;;
62673;SDS011;62269;47.594;17.638;2022-09-27T03:26:25;12.77;;;10.95;;
62673;SDS011;62269;47.594;17.638;2022-09-27T03:27:12;16.70;;;12.50;;
62673;SDS011;62269;47.594;17.638;2022-09-27T03:27:59;12.60;;;11.30;;
62673;SDS011;62269;47.594;17.638;2022-09-27T03:28:46;14.73;;;11.95;;
62673;SDS011;62269;47.594;17.638;2022-09-27T03:29:33;14.77;;;11.55;;
62673;SDS011;62269;47.594;17.638;2022-09-27T03:30:20;14.52;;;11.57;;
62673;SDS011;62269;47.594;17.638;2022-09-27T03:31:06;15.93;;;11.05;;
62673;SDS011;62269;47.594;17.638;2022-09-27T03:31:53;15.02;;;11.50;;
62673;SDS011;62269;47.594;17.638;2022-09-27T03:32:43;13.45;;;11.75;;
62673;SDS011;62269;47.594;17.638;2022-09-27T03:33:30;11.00;;;8.75;;
62673;SDS011;62269;47.594;17.638;2022-09-27T03:34:17;12.80;;;11.43;;
62673;SDS011;62269;47.594;17.638;2022-09-27T03:35:04;15.32;;;12.60;;
62673;SDS011;62269;47.594;17.638;2022-09-27T03:35:50;15.30;;;12.10;;
62673;SDS011;62269;47.594;17.638;2022-09-27T03:36:37;13.38;;;11.82;;
62673;SDS011;62269;47.594;17.638;2022-09-27T03:37:24;15.93;;;11.68;;
62673;SDS011;62269;47.594;17.638;2022-09-27T03:38:12;17.08;;;12.15;;
62673;SDS011;62269;47.594;17.638;2022-09-27T03:38:59;12.63;;;11.27;;
62673;SDS011;62269;47.594;17.638;2022-09-27T03:39:46;15.75;;;12.65;;
62673;SDS011;62269;47.594;17.638;2022-09-27T03:40:33;13.45;;;11.38;;
62673;SDS011;62269;47.594;17.638;2022-09-27T03:41:20;17.25;;;12.40;;
62673;SDS011;62269;47.594;17.638;2022-09-27T03:42:06;17.12;;;12.37;;
62673;SDS011;62269;47.594;17.638;2022-09-27T03:42:53;15.45;;;12.32;;
62673;SDS011;62269;47.594;17.638;2022-09-27T03:43:40;17.20;;;12.80;;
62673;SDS011;62269;47.594;17.638;2022-09-27T03:44:27;16.95;;;13.50;;
62673;SDS011;62269;47.594;17.638;2022-09-27T03:45:14;19.33;;;13.35;;
62673;SDS011;62269;47.594;17.638;2022-09-27T03:46:00;15.20;;;12.40;;
62673;SDS011;62269;47.594;17.638;2022-09-27T03:46:47;15.27;;;12.13;;
62673;SDS011;62269;47.594;17.638;2022-09-27T03:47:34;16.27;;;12.88;;
62673;SDS011;62269;47.594;17.638;2022-09-27T03:48:25;14.40;;;12.45;;
62673;SDS011;62269;47.594;17.638;2022-09-27T03:49:13;17.90;;;12.40;;
62673;SDS011;62269;47.594;17.638;2022-09-27T03:50:00;15.23;;;13.30;;
62673;SDS011;62269;47.594;17.638;2022-09-27T03:50:49;20.33;;;13.40;;
62673;SDS011;62269;47.594;17.638;2022-09-27T03:51:36;17.10;;;12.70;;
62673;SDS011;62269;47.594;17.638;2022-09-27T03:52:23;21.70;;;14.27;;
62673;SDS011;62269;47.594;17.638;2022-09-27T03:53:10;16.73;;;12.88;;
62673;SDS011;62269;47.594;17.638;2022-09-27T03:53:57;15.93;;;13.05;;
62673;SDS011;62269;47.594;17.638;2022-09-27T03:54:44;18.55;;;13.07;;
62673;SDS011;62269;47.594;17.638;2022-09-27T03:55:31;18.85;;;12.80;;
62673;SDS011;62269;47.594;17.638;2022-09-27T03:56:18;16.77;;;12.70;;
62673;SDS011;62269;47.594;17.638;2022-09-27T03:57:05;14.77;;;12.32;;
62673;SDS011;62269;47.594;17.638;2022-09-27T03:57:52;19.55;;;13.13;;
62673;SDS011;62269;47.594;17.638;2022-09-27T03:58:39;16.45;;;12.43;;
62673;SDS011;62269;47.594;17.638;2022-09-27T03:59:25;18.70;;;13.30;;
62673;SDS011;62269;47.594;17.638;2022-09-27T04:00:12;14.50;;;11.48;;
62673;SDS011;62269;47.594;17.638;2022-09-27T04:00:59;16.33;;;12.98;;
62673;SDS011;62269;47.594;17.638;2022-09-27T04:01:46;15.10;;;12.82;;
62673;SDS011;62269;47.594;17.638;2022-09-27T04:02:33;19.00;;;12.65;;
62673;SDS011;62269;47.594;17.638;2022-09-27T04:03:20;15.98;;;12.02;;
62673;SDS011;62269;47.594;17.638;2022-09-27T04:04:07;15.95;;;12.93;;
62673;SDS011;62269;47.594;17.638;2022-09-27T04:04:56;16.27;;;12.93;;
62673;SDS011;62269;47.594;17.638;2022-09-27T04:05:43;14.05;;;12.45;;
62673;SDS011;62269;47.594;17.638;2022-09-27T04:06:30;14.30;;;12.02;;
62673;SDS011;62269;47.594;17.638;2022-09-27T04:07:16;15.63;;;12.23;;
62673;SDS011;62269;47.594;17.638;2022-09-27T04:08:03;13.50;;;11.63;;
62673;SDS011;62269;47.594;17.638;2022-09-27T04:08:52;13.62;;;11.70;;
62673;SDS011;62269;47.594;17.638;2022-09-27T04:09:39;14.52;;;12.68;;
62673;SDS011;62269;47.594;17.638;2022-09-27T04:11:16;18.25;;;11.82;;
62673;SDS011;62269;47.594;17.638;2022-09-27T04:12:03;14.07;;;11.48;;
62673;SDS011;62269;47.594;17.638;2022-09-27T04:12:50;15.88;;;12.13;;
62673;SDS011;62269;47.594;17.638;2022-09-27T04:13:37;13.25;;;11.73;;
62673;SDS011;62269;47.594;17.638;2022-09-27T04:14:23;17.55;;;11.75;;
62673;SDS011;62269;47.594;17.638;2022-09-27T04:15:10;17.35;;;12.65;;
62673;SDS011;62269;47.594;17.638;2022-09-27T04:15:57;15.13;;;11.98;;
62673;SDS011;62269;47.594;17.638;2022-09-27T04:16:44;14.90;;;12.35;;
62673;SDS011;62269;47.594;17.638;2022-09-27T04:17:30;17.48;;;12.10;;
62673;SDS011;62269;47.594;17.638;2022-09-27T04:18:17;14.45;;;11.73;;
62673;SDS011;62269;47.594;17.638;2022-09-27T04:19:04;18.90;;;12.50;;
62673;SDS011;62269;47.594;17.638;2022-09-27T04:19:52;14.48;;;11.85;;
62673;SDS011;62269;47.594;17.638;2022-09-27T04:20:39;19.30;;;12.30;;
62673;SDS011;62269;47.594;17.638;2022-09-27T04:21:26;14.13;;;12.25;;
62673;SDS011;62269;47.594;17.638;2022-09-27T04:22:13;15.32;;;13.07;;
62673;SDS011;62269;47.594;17.638;2022-09-27T04:23:01;15.48;;;12.30;;
62673;SDS011;62269;47.594;17.638;2022-09-27T04:23:48;15.00;;;11.52;;
62673;SDS011;62269;47.594;17.638;2022-09-27T04:24:34;14.15;;;12.13;;
62673;SDS011;62269;47.594;17.638;2022-09-27T04:25:21;15.50;;;12.23;;
62673;SDS011;62269;47.594;17.638;2022-09-27T04:26:08;14.95;;;11.85;;
62673;SDS011;62269;47.594;17.638;2022-09-27T04:26:55;17.33;;;11.82;;
62673;SDS011;62269;47.594;17.638;2022-09-27T04:27:45;15.38;;;11.88;;
62673;SDS011;62269;47.594;17.638;2022-09-27T04:28:33;14.05;;;12.07;;
62673;SDS011;62269;47.594;17.638;2022-09-27T04:29:20;16.92;;;12.13;;
62673;SDS011;62269;47.594;17.638;2022-09-27T04:30:07;14.43;;;12.48;;
62673;SDS011;62269;47.594;17.638;2022-09-27T04:30:55;17.05;;;12.85;;
62673;SDS011;62269;47.594;17.638;2022-09-27T04:31:42;17.60;;;12.63;;
62673;SDS011;62269;47.594;17.638;2022-09-27T04:32:33;16.08;;;12.20;;
62673;SDS011;62269;47.594;17.638;2022-09-27T04:33:19;12.80;;;11.40;;
62673;SDS011;62269;47.594;17.638;2022-09-27T04:34:07;13.23;;;11.85;;
62673;SDS011;62269;47.594;17.638;2022-09-27T04:34:53;15.23;;;11.68;;
62673;SDS011;62269;47.594;17.638;2022-09-27T04:35:59;17.40;;;11.23;;
62673;SDS011;62269;47.594;17.638;2022-09-27T04:37:05;14.02;;;12.18;;
62673;SDS011;62269;47.594;17.638;2022-09-27T04:37:51;16.37;;;12.32;;
62673;SDS011;62269;47.594;17.638;2022-09-27T04:38:39;16.58;;;12.25;;
62673;SDS011;62269;47.594;17.638;2022-09-27T04:39:25;15.57;;;11.85;;
62673;SDS011;62269;47.594;17.638;2022-09-27T04:40:12;17.55;;;11.32;;
62673;SDS011;62269;47.594;17.638;2022-09-27T04:40:59;17.35;;;12.40;;
62673;SDS011;62269;47.594;17.638;2022-09-27T04:41:47;15.65;;;12.20;;
62673;SDS011;62269;47.594;17.638;2022-09-27T04:42:34;15.45;;;12.10;;
62673;SDS011;62269;47.594;17.638;2022-09-27T04:43:21;14.27;;;11.77;;
62673;SDS011;62269;47.594;17.638;2022-09-27T04:44:08;14.30;;;11.88;;
62673;SDS011;62269;47.594;17.638;2022-09-27T04:44:54;13.70;;;10.93;;
62673;SDS011;62269;47.594;17.638;2022-09-27T04:45:44;15.75;;;11.32;;
62673;SDS011;62269;47.594;17.638;2022-09-27T04:46:31;12.55;;;10.88;;
62673;SDS011;62269;47.594;17.638;2022-09-27T04:47:19;12.18;;;10.98;;
62673;SDS011;62269;47.594;17.638;2022-09-27T04:48:06;12.73;;;11.43;;
62673;SDS011;62269;47.594;17.638;2022-09-27T04:48:53;15.43;;;11.93;;
62673;SDS011;62269;47.594;17.638;2022-09-27T04:49:40;17.42;;;11.20;;
62673;SDS011;62269;47.594;17.638;2022-09-27T04:50:26;13.90;;;11.93;;
62673;SDS011;62269;47.594;17.638;2022-09-27T04:51:15;14.57;;;11.70;;
62673;SDS011;62269;47.594;17.638;2022-09-27T04:52:03;15.13;;;11.65;;
62673;SDS011;62269;47.594;17.638;2022-09-27T04:52:50;18.02;;;11.90;;
62673;SDS011;62269;47.594;17.638;2022-09-27T04:53:38;14.30;;;11.20;;
62673;SDS011;62269;47.594;17.638;2022-09-27T04:54:24;17.98;;;11.25;;
62673;SDS011;62269;47.594;17.638;2022-09-27T04:55:11;15.05;;;11.60;;
62673;SDS011;62269;47.594;17.638;2022-09-27T04:55:58;17.80;;;11.45;;
62673;SDS011;62269;47.594;17.638;2022-09-27T04:56:47;13.93;;;11.18;;
62673;SDS011;62269;47.594;17.638;2022-09-27T04:57:34;12.80;;;10.48;;
62673;SDS011;62269;47.594;17.638;2022-09-27T04:58:21;13.15;;;10.40;;
62673;SDS011;62269;47.594;17.638;2022-09-27T04:59:08;14.23;;;11.15;;
62673;SDS011;62269;47.594;17.638;2022-09-27T04:59:56;12.27;;;10.88;;
62673;SDS011;62269;47.594;17.638;2022-09-27T05:00:45;14.23;;;11.77;;
62673;SDS011;62269;47.594;17.638;2022-09-27T05:01:32;12.40;;;10.93;;
62673;SDS011;62269;47.594;17.638;2022-09-27T05:02:20;14.70;;;11.20;;
62673;SDS011;62269;47.594;17.638;2022-09-27T05:03:07;16.25;;;11.35;;
62673;SDS011;62269;47.594;17.638;2022-09-27T05:03:54;15.40;;;11.55;;
62673;SDS011;62269;47.594;17.638;2022-09-27T05:04:41;14.32;;;11.30;;
62673;SDS011;62269;47.594;17.638;2022-09-27T05:05:27;15.95;;;11.57;;
62673;SDS011;62269;47.594;17.638;2022-09-27T05:06:14;13.07;;;11.12;;
62673;SDS011;62269;47.594;17.638;2022-09-27T05:07:01;14.93;;;11.65;;
62673;SDS011;62269;47.594;17.638;2022-09-27T05:07:47;15.63;;;12.43;;
62673;SDS011;62269;47.594;17.638;2022-09-27T05:08:34;12.50;;;10.80;;
62673;SDS011;62269;47.594;17.638;2022-09-27T05:09:21;15.98;;;11.95;;
62673;SDS011;62269;47.594;17.638;2022-09-27T05:10:08;14.32;;;11.98;;
62673;SDS011;62269;47.594;17.638;2022-09-27T05:10:55;14.73;;;11.30;;
62673;SDS011;62269;47.594;17.638;2022-09-27T05:11:41;16.65;;;11.70;;
62673;SDS011;62269;47.594;17.638;2022-09-27T05:12:28;13.62;;;11.57;;
62673;SDS011;62269;47.594;17.638;2022-09-27T05:13:15;12.68;;;11.35;;
62673;SDS011;62269;47.594;17.638;2022-09-27T05:14:02;12.77;;;11.43;;
62673;SDS011;62269;47.594;17.638;2022-09-27T05:14:50;14.15;;;11.57;;
62673;SDS011;62269;47.594;17.638;2022-09-27T05:15:36;12.95;;;11.60;;
62673;SDS011;62269;47.594;17.638;2022-09-27T05:16:24;16.42;;;11.85;;
62673;SDS011;62269;47.594;17.638;2022-09-27T05:17:11;17.37;;;12.35;;
62673;SDS011;62269;47.594;17.638;2022-09-27T05:17:58;14.70;;;12.37;;
62673;SDS011;62269;47.594;17.638;2022-09-27T05:18:45;13.82;;;11.95;;
62673;SDS011;62269;47.594;17.638;2022-09-27T05:19:32;15.18;;;11.57;;
62673;SDS011;62269;47.594;17.638;2022-09-27T05:20:19;13.43;;;11.95;;
62673;SDS011;62269;47.594;17.638;2022-09-27T05:21:06;14.18;;;12.00;;
62673;SDS011;62269;47.594;17.638;2022-09-27T05:21:53;13.02;;;11.57;;
62673;SDS011;62269;47.594;17.638;2022-09-27T05:22:40;13.93;;;11.95;;
62673;SDS011;62269;47.594;17.638;2022-09-27T05:23:26;14.00;;;12.25;;
62673;SDS011;62269;47.594;17.638;2022-09-27T05:24:13;13.20;;;11.77;;
62673;SDS011;62269;47.594;17.638;2022-09-27T05:25:00;12.52;;;11.18;;